Urb La Sierra Alta, Puerto Rico
Current Conditions -  °F | °C
As of 12:56 PM on Sunday 21 Dec 2014 (Local Time) from TJSJ Reporting Station
Scattered Clouds Scattered Clouds  
Wind Chill: 84°   Ceiling: Unl
Heat Index: 87°   Visibility: 10mi
Dew Point: 68°   Wind: 16mph
Humidity: 58%   Direction: 50°NE
Pressure: 30.06"   Gusts: NA
Location:  18.3754°N, 66.0577°W
Report Text: TJSJ 211656Z 05014KT 10SM SCT039 29/20 A3006 RMK AO2 SLP179 T02890200
Loading
Personal Weather Stations






























Interactive Weather Map New forecast layout! Learn more

10-Day Weather Forecast

Advertisements
Track Severe Weather on mobile